sensor_id;sensor_type;location;lat;lon;timestamp;pressure;altitude;pressure_sealevel;temperature;humidity
7760;BME280;3924;48.830;9.262;2023-09-19T00:01:41;98165.13;;;18.69;75.43
7760;BME280;3924;48.830;9.262;2023-09-19T00:04:08;98166.28;;;18.68;75.50
7760;BME280;3924;48.830;9.262;2023-09-19T00:06:36;98173.16;;;18.62;75.68
7760;BME280;3924;48.830;9.262;2023-09-19T00:09:03;98168.81;;;18.61;75.43
7760;BME280;3924;48.830;9.262;2023-09-19T00:11:30;98175.00;;;18.58;75.65
7760;BME280;3924;48.830;9.262;2023-09-19T00:13:57;98180.84;;;18.56;75.78
7760;BME280;3924;48.830;9.262;2023-09-19T00:16:26;98187.94;;;18.57;75.94
7760;BME280;3924;48.830;9.262;2023-09-19T00:18:53;98191.94;;;18.60;75.82
7760;BME280;3924;48.830;9.262;2023-09-19T00:21:20;98197.75;;;18.58;75.62
7760;BME280;3924;48.830;9.262;2023-09-19T00:23:46;98201.28;;;18.59;75.65
7760;BME280;3924;48.830;9.262;2023-09-19T00:26:13;98202.09;;;18.59;75.88
7760;BME280;3924;48.830;9.262;2023-09-19T00:28:40;98201.75;;;18.61;75.85
7760;BME280;3924;48.830;9.262;2023-09-19T00:31:09;98204.50;;;18.61;75.67
7760;BME280;3924;48.830;9.262;2023-09-19T00:33:36;98207.69;;;18.63;75.94
7760;BME280;3924;48.830;9.262;2023-09-19T00:36:03;98213.19;;;18.63;75.70
7760;BME280;3924;48.830;9.262;2023-09-19T00:38:32;98208.84;;;18.62;75.89
7760;BME280;3924;48.830;9.262;2023-09-19T00:40:58;98208.47;;;18.64;75.93
7760;BME280;3924;48.830;9.262;2023-09-19T00:43:26;98216.34;;;18.65;75.99
7760;BME280;3924;48.830;9.262;2023-09-19T00:45:55;98213.53;;;18.62;75.92
7760;BME280;3924;48.830;9.262;2023-09-19T00:48:22;98213.44;;;18.58;76.02
7760;BME280;3924;48.830;9.262;2023-09-19T00:50:49;98210.25;;;18.56;76.16
7760;BME280;3924;48.830;9.262;2023-09-19T00:53:21;98217.69;;;18.55;76.01
7760;BME280;3924;48.830;9.262;2023-09-19T00:55:49;98223.25;;;18.59;76.01
7760;BME280;3924;48.830;9.262;2023-09-19T00:58:17;98225.56;;;18.57;76.02
7760;BME280;3924;48.830;9.262;2023-09-19T01:00:45;98223.09;;;18.52;76.38
7760;BME280;3924;48.830;9.262;2023-09-19T01:03:12;98225.81;;;18.52;76.32
7760;BME280;3924;48.830;9.262;2023-09-19T01:05:42;98232.13;;;18.52;76.33
7760;BME280;3924;48.830;9.262;2023-09-19T01:08:09;98230.88;;;18.50;76.40
7760;BME280;3924;48.830;9.262;2023-09-19T01:10:44;98229.28;;;18.49;76.61
7760;BME280;3924;48.830;9.262;2023-09-19T01:13:22;98228.06;;;18.46;76.35
7760;BME280;3924;48.830;9.262;2023-09-19T01:18:46;98233.81;;;18.41;76.52
7760;BME280;3924;48.830;9.262;2023-09-19T01:21:21;98234.16;;;18.40;76.63
7760;BME280;3924;48.830;9.262;2023-09-19T01:29:49;98238.50;;;18.41;76.81
7760;BME280;3924;48.830;9.262;2023-09-19T01:32:18;98237.59;;;18.37;76.77
7760;BME280;3924;48.830;9.262;2023-09-19T01:34:55;98248.38;;;18.29;76.73
7760;BME280;3924;48.830;9.262;2023-09-19T01:37:24;98243.59;;;18.26;76.88
7760;BME280;3924;48.830;9.262;2023-09-19T01:39:58;98241.31;;;18.28;76.74
7760;BME280;3924;48.830;9.262;2023-09-19T01:42:44;98240.59;;;18.31;76.85
7760;BME280;3924;48.830;9.262;2023-09-19T01:45:13;98242.09;;;18.29;76.91
7760;BME280;3924;48.830;9.262;2023-09-19T01:47:46;98249.97;;;18.30;76.66
7760;BME280;3924;48.830;9.262;2023-09-19T01:53:12;98253.06;;;18.29;77.05
7760;BME280;3924;48.830;9.262;2023-09-19T01:55:43;98247.94;;;18.27;76.84
7760;BME280;3924;48.830;9.262;2023-09-19T01:58:29;98256.19;;;18.27;77.00
7760;BME280;3924;48.830;9.262;2023-09-19T02:00:58;98257.66;;;18.25;77.10
7760;BME280;3924;48.830;9.262;2023-09-19T02:03:26;98268.31;;;18.26;76.83
7760;BME280;3924;48.830;9.262;2023-09-19T02:05:55;98268.63;;;18.25;76.75
7760;BME280;3924;48.830;9.262;2023-09-19T02:08:23;98278.81;;;18.24;77.03
7760;BME280;3924;48.830;9.262;2023-09-19T02:10:52;98274.84;;;18.22;76.93
7760;BME280;3924;48.830;9.262;2023-09-19T02:13:20;98284.31;;;18.24;76.99
7760;BME280;3924;48.830;9.262;2023-09-19T02:15:48;98284.31;;;18.24;77.16
7760;BME280;3924;48.830;9.262;2023-09-19T02:18:14;98275.63;;;18.22;77.04
7760;BME280;3924;48.830;9.262;2023-09-19T02:20:41;98274.03;;;18.21;76.92
7760;BME280;3924;48.830;9.262;2023-09-19T02:23:09;98284.22;;;18.21;76.90
7760;BME280;3924;48.830;9.262;2023-09-19T02:25:36;98279.16;;;18.23;77.09
7760;BME280;3924;48.830;9.262;2023-09-19T02:28:04;98286.16;;;18.20;77.02
7760;BME280;3924;48.830;9.262;2023-09-19T02:30:32;98285.69;;;18.18;77.29
7760;BME280;3924;48.830;9.262;2023-09-19T02:32:59;98282.50;;;18.16;76.94
7760;BME280;3924;48.830;9.262;2023-09-19T02:35:28;98277.81;;;18.17;77.35
7760;BME280;3924;48.830;9.262;2023-09-19T02:37:59;98282.06;;;18.14;77.08
7760;BME280;3924;48.830;9.262;2023-09-19T02:40:25;98279.22;;;18.11;77.04
7760;BME280;3924;48.830;9.262;2023-09-19T02:42:54;98285.06;;;18.09;77.23
7760;BME280;3924;48.830;9.262;2023-09-19T02:45:20;98286.22;;;18.08;77.32
7760;BME280;3924;48.830;9.262;2023-09-19T02:47:47;98289.19;;;18.03;77.33
7760;BME280;3924;48.830;9.262;2023-09-19T02:50:15;98294.69;;;18.03;77.24
7760;BME280;3924;48.830;9.262;2023-09-19T02:52:43;98294.25;;;18.01;77.37
7760;BME280;3924;48.830;9.262;2023-09-19T02:55:12;98296.97;;;18.01;77.15
7760;BME280;3924;48.830;9.262;2023-09-19T02:57:40;98306.00;;;18.01;77.45
7760;BME280;3924;48.830;9.262;2023-09-19T03:00:10;98302.13;;;18.02;77.13
7760;BME280;3924;48.830;9.262;2023-09-19T03:02:37;98306.44;;;18.03;77.56
7760;BME280;3924;48.830;9.262;2023-09-19T03:05:05;98315.94;;;18.06;77.02
7760;BME280;3924;48.830;9.262;2023-09-19T03:07:33;98304.50;;;18.04;77.14
7760;BME280;3924;48.830;9.262;2023-09-19T03:10:00;98306.91;;;18.06;77.31
7760;BME280;3924;48.830;9.262;2023-09-19T03:12:27;98309.75;;;18.09;77.19
7760;BME280;3924;48.830;9.262;2023-09-19T03:14:53;98319.50;;;18.07;77.09
7760;BME280;3924;48.830;9.262;2023-09-19T03:17:20;98309.66;;;18.06;77.05
7760;BME280;3924;48.830;9.262;2023-09-19T03:19:47;98312.72;;;18.04;77.09
7760;BME280;3924;48.830;9.262;2023-09-19T03:22:14;98315.81;;;18.02;77.11
7760;BME280;3924;48.830;9.262;2023-09-19T03:24:41;98311.50;;;18.01;77.24
7760;BME280;3924;48.830;9.262;2023-09-19T03:27:10;98319.84;;;18.05;77.30
7760;BME280;3924;48.830;9.262;2023-09-19T03:29:36;98311.59;;;18.05;77.08
7760;BME280;3924;48.830;9.262;2023-09-19T03:32:03;98304.19;;;18.06;77.16
7760;BME280;3924;48.830;9.262;2023-09-19T03:34:30;98309.19;;;18.03;77.14
7760;BME280;3924;48.830;9.262;2023-09-19T03:36:57;98311.13;;;18.03;76.94
7760;BME280;3924;48.830;9.262;2023-09-19T03:39:24;98318.22;;;18.04;77.09
7760;BME280;3924;48.830;9.262;2023-09-19T03:41:50;98312.72;;;18.04;77.08
7760;BME280;3924;48.830;9.262;2023-09-19T03:44:17;98307.25;;;18.04;77.13
7760;BME280;3924;48.830;9.262;2023-09-19T03:46:43;98310.47;;;18.06;76.92
7760;BME280;3924;48.830;9.262;2023-09-19T03:49:09;98314.34;;;18.05;77.17
7760;BME280;3924;48.830;9.262;2023-09-19T03:51:36;98323.69;;;18.04;77.30
7760;BME280;3924;48.830;9.262;2023-09-19T03:54:04;98322.13;;;18.03;77.00
7760;BME280;3924;48.830;9.262;2023-09-19T03:56:30;98320.06;;;18.00;77.12
7760;BME280;3924;48.830;9.262;2023-09-19T03:58:57;98316.97;;;18.01;77.10
7760;BME280;3924;48.830;9.262;2023-09-19T04:01:24;98318.22;;;18.04;77.25
7760;BME280;3924;48.830;9.262;2023-09-19T04:03:50;98315.47;;;18.04;76.92
7760;BME280;3924;48.830;9.262;2023-09-19T04:06:19;98322.22;;;18.07;77.15
7760;BME280;3924;48.830;9.262;2023-09-19T04:08:46;98320.72;;;18.09;76.96
7760;BME280;3924;48.830;9.262;2023-09-19T04:11:13;98330.56;;;18.10;77.07
7760;BME280;3924;48.830;9.262;2023-09-19T04:13:40;98331.94;;;18.04;77.13
7760;BME280;3924;48.830;9.262;2023-09-19T04:16:07;98332.19;;;17.99;77.36
7760;BME280;3924;48.830;9.262;2023-09-19T04:18:33;98340.22;;;17.92;77.36
7760;BME280;3924;48.830;9.262;2023-09-19T04:21:04;98326.88;;;17.78;77.69
7760;BME280;3924;48.830;9.262;2023-09-19T04:23:32;98313.94;;;17.66;78.05
7760;BME280;3924;48.830;9.262;2023-09-19T04:25:59;98322.97;;;17.67;78.20
7760;BME280;3924;48.830;9.262;2023-09-19T04:28:26;98325.25;;;17.65;78.31
7760;BME280;3924;48.830;9.262;2023-09-19T04:30:54;98324.78;;;17.63;78.61
7760;BME280;3924;48.830;9.262;2023-09-19T04:33:21;98337.69;;;17.62;78.63
7760;BME280;3924;48.830;9.262;2023-09-19T04:35:51;98342.38;;;17.62;78.83
7760;BME280;3924;48.830;9.262;2023-09-19T04:38:20;98338.41;;;17.59;78.77
7760;BME280;3924;48.830;9.262;2023-09-19T04:40:47;98344.69;;;17.60;78.87
7760;BME280;3924;48.830;9.262;2023-09-19T04:43:13;98338.75;;;17.58;79.23
7760;BME280;3924;48.830;9.262;2023-09-19T04:45:41;98343.44;;;17.57;79.11
7760;BME280;3924;48.830;9.262;2023-09-19T04:48:08;98341.13;;;17.59;79.34
7760;BME280;3924;48.830;9.262;2023-09-19T04:50:37;98341.13;;;17.59;79.45
7760;BME280;3924;48.830;9.262;2023-09-19T04:53:04;98338.84;;;17.61;79.55
7760;BME280;3924;48.830;9.262;2023-09-19T04:55:31;98343.66;;;17.64;79.44
7760;BME280;3924;48.830;9.262;2023-09-19T04:57:59;98354.63;;;17.64;79.77
7760;BME280;3924;48.830;9.262;2023-09-19T05:00:26;98357.69;;;17.63;79.82
7760;BME280;3924;48.830;9.262;2023-09-19T05:02:56;98363.28;;;17.66;79.69
7760;BME280;3924;48.830;9.262;2023-09-19T05:05:24;98369.56;;;17.67;79.73
7760;BME280;3924;48.830;9.262;2023-09-19T05:07:52;98371.88;;;17.65;79.77
7760;BME280;3924;48.830;9.262;2023-09-19T05:10:20;98369.44;;;17.63;79.93
7760;BME280;3924;48.830;9.262;2023-09-19T05:12:48;98378.72;;;17.59;79.97
7760;BME280;3924;48.830;9.262;2023-09-19T05:15:18;98372.31;;;17.55;80.32
7760;BME280;3924;48.830;9.262;2023-09-19T05:17:49;98379.75;;;17.54;80.19
7760;BME280;3924;48.830;9.262;2023-09-19T05:20:21;98372.88;;;17.48;80.45
7760;BME280;3924;48.830;9.262;2023-09-19T05:23:02;98379.84;;;17.45;80.70
7760;BME280;3924;48.830;9.262;2023-09-19T05:25:31;98391.63;;;17.46;80.87
7760;BME280;3924;48.830;9.262;2023-09-19T05:27:59;98383.16;;;17.39;80.74
7760;BME280;3924;48.830;9.262;2023-09-19T05:30:26;98392.06;;;17.36;81.00
7760;BME280;3924;48.830;9.262;2023-09-19T05:32:55;98397.53;;;17.36;81.29
7760;BME280;3924;48.830;9.262;2023-09-19T05:35:23;98395.50;;;17.33;81.09
7760;BME280;3924;48.830;9.262;2023-09-19T05:37:51;98402.78;;;17.29;81.27
7760;BME280;3924;48.830;9.262;2023-09-19T05:40:18;98399.13;;;17.25;81.51
7760;BME280;3924;48.830;9.262;2023-09-19T05:42:45;98419.22;;;17.29;81.64
7760;BME280;3924;48.830;9.262;2023-09-19T05:45:13;98418.31;;;17.25;81.68
7760;BME280;3924;48.830;9.262;2023-09-19T05:47:40;98433.72;;;17.17;81.77
7760;BME280;3924;48.830;9.262;2023-09-19T05:50:12;98435.06;;;17.11;81.86
7760;BME280;3924;48.830;9.262;2023-09-19T05:52:38;98437.66;;;17.07;81.97
7760;BME280;3924;48.830;9.262;2023-09-19T05:55:05;98439.50;;;17.03;82.19
7760;BME280;3924;48.830;9.262;2023-09-19T05:57:34;98450.47;;;17.03;82.39
7760;BME280;3924;48.830;9.262;2023-09-19T06:00:00;98448.72;;;16.99;82.56
7760;BME280;3924;48.830;9.262;2023-09-19T06:02:27;98455.94;;;17.03;82.49
7760;BME280;3924;48.830;9.262;2023-09-19T06:04:56;98462.31;;;16.95;82.39
7760;BME280;3924;48.830;9.262;2023-09-19T06:07:23;98455.63;;;16.84;82.60
7760;BME280;3924;48.830;9.262;2023-09-19T06:09:53;98470.50;;;16.74;82.66
7760;BME280;3924;48.830;9.262;2023-09-19T06:12:22;98490.75;;;16.61;82.60
7760;BME280;3924;48.830;9.262;2023-09-19T06:14:49;98491.38;;;16.37;82.54
7760;BME280;3924;48.830;9.262;2023-09-19T06:17:15;98481.13;;;16.04;83.28
7760;BME280;3924;48.830;9.262;2023-09-19T06:19:43;98470.09;;;15.92;83.83
7760;BME280;3924;48.830;9.262;2023-09-19T06:22:15;98473.94;;;15.91;83.64
7760;BME280;3924;48.830;9.262;2023-09-19T06:24:45;98472.84;;;15.92;83.71
7760;BME280;3924;48.830;9.262;2023-09-19T06:27:13;98475.38;;;15.97;83.67
7760;BME280;3924;48.830;9.262;2023-09-19T06:29:39;98471.94;;;16.09;83.41
7760;BME280;3924;48.830;9.262;2023-09-19T06:32:09;98469.00;;;16.14;83.28
7760;BME280;3924;48.830;9.262;2023-09-19T06:34:37;98468.63;;;16.24;83.40
7760;BME280;3924;48.830;9.262;2023-09-19T06:37:04;98478.38;;;16.34;83.41
7760;BME280;3924;48.830;9.262;2023-09-19T06:39:34;98475.69;;;16.46;83.23
7760;BME280;3924;48.830;9.262;2023-09-19T06:42:01;98473.38;;;16.57;83.11
7760;BME280;3924;48.830;9.262;2023-09-19T06:44:28;98477.19;;;16.64;83.02
7760;BME280;3924;48.830;9.262;2023-09-19T06:46:56;98474.28;;;16.70;83.04
7760;BME280;3924;48.830;9.262;2023-09-19T06:49:22;98482.88;;;16.80;82.72
7760;BME280;3924;48.830;9.262;2023-09-19T06:51:49;98488.59;;;16.87;82.67
7760;BME280;3924;48.830;9.262;2023-09-19T06:54:16;98504.19;;;16.95;82.43
7760;BME280;3924;48.830;9.262;2023-09-19T06:56:44;98493.00;;;17.01;82.50
7760;BME280;3924;48.830;9.262;2023-09-19T06:59:10;98490.66;;;17.11;82.30
7760;BME280;3924;48.830;9.262;2023-09-19T07:01:40;98491.00;;;17.22;82.06
7760;BME280;3924;48.830;9.262;2023-09-19T07:04:07;98491.41;;;17.33;82.06
7760;BME280;3924;48.830;9.262;2023-09-19T07:06:34;98494.63;;;17.47;82.01
7760;BME280;3924;48.830;9.262;2023-09-19T07:09:02;98493.31;;;17.65;81.58
7760;BME280;3924;48.830;9.262;2023-09-19T07:11:29;98498.84;;;17.77;81.27
7760;BME280;3924;48.830;9.262;2023-09-19T07:13:57;98505.69;;;17.84;81.32
7760;BME280;3924;48.830;9.262;2023-09-19T07:16:24;98496.34;;;17.85;81.10
7760;BME280;3924;48.830;9.262;2023-09-19T07:18:56;98512.22;;;17.91;80.82
7760;BME280;3924;48.830;9.262;2023-09-19T07:21:23;98517.22;;;17.89;81.11
7760;BME280;3924;48.830;9.262;2023-09-19T07:23:50;98518.28;;;17.85;81.21
7760;BME280;3924;48.830;9.262;2023-09-19T07:26:18;98518.72;;;17.74;81.29
7760;BME280;3924;48.830;9.262;2023-09-19T07:28:45;98527.38;;;17.76;80.90
7760;BME280;3924;48.830;9.262;2023-09-19T07:31:11;98519.50;;;17.75;80.92
7760;BME280;3924;48.830;9.262;2023-09-19T07:33:40;98522.25;;;17.75;80.97
7760;BME280;3924;48.830;9.262;2023-09-19T07:36:09;98525.78;;;17.75;81.01
7760;BME280;3924;48.830;9.262;2023-09-19T07:38:37;98523.19;;;17.79;81.17
7760;BME280;3924;48.830;9.262;2023-09-19T07:41:04;98518.28;;;17.85;80.73
7760;BME280;3924;48.830;9.262;2023-09-19T07:43:31;98538.16;;;17.94;80.96
7760;BME280;3924;48.830;9.262;2023-09-19T07:46:03;98542.72;;;17.90;80.54
7760;BME280;3924;48.830;9.262;2023-09-19T07:48:30;98541.47;;;17.87;80.59
7760;BME280;3924;48.830;9.262;2023-09-19T07:51:03;98533.81;;;17.93;80.50
7760;BME280;3924;48.830;9.262;2023-09-19T07:53:30;98537.94;;;17.99;80.33
7760;BME280;3924;48.830;9.262;2023-09-19T07:56:07;98549.69;;;18.12;80.22
7760;BME280;3924;48.830;9.262;2023-09-19T07:58:34;98547.66;;;18.21;79.87
7760;BME280;3924;48.830;9.262;2023-09-19T08:01:03;98546.28;;;18.27;79.68
7760;BME280;3924;48.830;9.262;2023-09-19T08:03:29;98548.22;;;18.39;79.64
7760;BME280;3924;48.830;9.262;2023-09-19T08:05:56;98553.94;;;18.46;79.51
7760;BME280;3924;48.830;9.262;2023-09-19T08:08:24;98556.00;;;18.37;79.25
7760;BME280;3924;48.830;9.262;2023-09-19T08:10:56;98561.41;;;18.33;79.46
7760;BME280;3924;48.830;9.262;2023-09-19T08:13:23;98556.69;;;18.34;79.27
7760;BME280;3924;48.830;9.262;2023-09-19T08:15:50;98557.59;;;18.38;79.17
7760;BME280;3924;48.830;9.262;2023-09-19T08:18:17;98555.19;;;18.48;78.97
7760;BME280;3924;48.830;9.262;2023-09-19T08:20:49;98562.97;;;18.58;78.58
7760;BME280;3924;48.830;9.262;2023-09-19T08:23:16;98558.72;;;18.73;78.66
7760;BME280;3924;48.830;9.262;2023-09-19T08:25:47;98553.53;;;18.96;77.80
7760;BME280;3924;48.830;9.262;2023-09-19T08:28:13;98561.88;;;19.00;77.64
7760;BME280;3924;48.830;9.262;2023-09-19T08:30:45;98557.97;;;19.01;77.57
7760;BME280;3924;48.830;9.262;2023-09-19T08:33:12;98557.06;;;19.09;77.55
7760;BME280;3924;48.830;9.262;2023-09-19T08:35:41;98556.31;;;19.24;76.93
7760;BME280;3924;48.830;9.262;2023-09-19T08:38:09;98561.47;;;19.41;76.76
7760;BME280;3924;48.830;9.262;2023-09-19T08:40:38;98553.72;;;19.44;76.26
7760;BME280;3924;48.830;9.262;2023-09-19T08:43:07;98573.03;;;19.47;76.32
7760;BME280;3924;48.830;9.262;2023-09-19T08:45:34;98568.13;;;19.40;76.30
7760;BME280;3924;48.830;9.262;2023-09-19T08:48:24;98575.44;;;19.49;76.08
7760;BME280;3924;48.830;9.262;2023-09-19T08:50:56;98573.59;;;19.53;75.74
7760;BME280;3924;48.830;9.262;2023-09-19T08:53:51;98575.00;;;19.75;75.39
7760;BME280;3924;48.830;9.262;2023-09-19T08:56:18;98577.38;;;19.76;75.17
7760;BME280;3924;48.830;9.262;2023-09-19T08:58:50;98578.91;;;19.89;74.91
7760;BME280;3924;48.830;9.262;2023-09-19T09:01:21;98574.75;;;19.95;74.53
7760;BME280;3924;48.830;9.262;2023-09-19T09:03:53;98576.63;;;20.07;73.96
7760;BME280;3924;48.830;9.262;2023-09-19T09:06:20;98574.41;;;20.29;73.75
7760;BME280;3924;48.830;9.262;2023-09-19T09:08:47;98576.03;;;20.45;73.46
7760;BME280;3924;48.830;9.262;2023-09-19T09:11:15;98572.97;;;20.66;72.67
7760;BME280;3924;48.830;9.262;2023-09-19T09:13:47;98571.69;;;20.99;71.74
7760;BME280;3924;48.830;9.262;2023-09-19T09:16:14;98568.59;;;21.00;71.69
7760;BME280;3924;48.830;9.262;2023-09-19T09:18:45;98572.72;;;21.10;71.18
7760;BME280;3924;48.830;9.262;2023-09-19T09:21:12;98577.44;;;21.10;70.94
7760;BME280;3924;48.830;9.262;2023-09-19T09:23:42;98575.00;;;21.24;70.69
7760;BME280;3924;48.830;9.262;2023-09-19T09:26:08;98575.59;;;21.33;70.02
7760;BME280;3924;48.830;9.262;2023-09-19T09:28:36;98582.28;;;21.51;69.33
7760;BME280;3924;48.830;9.262;2023-09-19T09:31:23;98587.34;;;21.49;68.89
7760;BME280;3924;48.830;9.262;2023-09-19T09:33:55;98589.00;;;21.15;69.20
7760;BME280;3924;48.830;9.262;2023-09-19T09:36:36;98578.44;;;20.82;69.72
7760;BME280;3924;48.830;9.262;2023-09-19T09:39:03;98581.13;;;20.63;69.59
7760;BME280;3924;48.830;9.262;2023-09-19T09:41:50;98578.41;;;20.47;69.83
7760;BME280;3924;48.830;9.262;2023-09-19T09:44:18;98591.91;;;20.52;69.55
7760;BME280;3924;48.830;9.262;2023-09-19T09:46:46;98588.88;;;20.73;68.99
7760;BME280;3924;48.830;9.262;2023-09-19T09:49:24;98586.00;;;20.69;68.68
7760;BME280;3924;48.830;9.262;2023-09-19T09:52:02;98578.81;;;20.65;68.58
7760;BME280;3924;48.830;9.262;2023-09-19T09:54:37;98582.13;;;20.55;68.36
7760;BME280;3924;48.830;9.262;2023-09-19T09:57:08;98582.84;;;20.52;68.07
7760;BME280;3924;48.830;9.262;2023-09-19T10:02:24;98584.81;;;20.19;68.45
7760;BME280;3924;48.830;9.262;2023-09-19T10:04:52;98582.47;;;20.37;67.66
7760;BME280;3924;48.830;9.262;2023-09-19T10:07:40;98577.84;;;20.57;66.97
7760;BME280;3924;48.830;9.262;2023-09-19T10:10:10;98579.91;;;20.44;66.94
7760;BME280;3924;48.830;9.262;2023-09-19T10:12:45;98578.66;;;20.26;67.23
7760;BME280;3924;48.830;9.262;2023-09-19T10:15:18;98587.81;;;20.14;67.14
7760;BME280;3924;48.830;9.262;2023-09-19T10:17:47;98585.59;;;20.04;67.01
7760;BME280;3924;48.830;9.262;2023-09-19T10:20:17;98579.75;;;20.06;66.93
7760;BME280;3924;48.830;9.262;2023-09-19T10:23:03;98581.69;;;20.21;66.49
7760;BME280;3924;48.830;9.262;2023-09-19T10:25:43;98566.94;;;20.61;65.25
7760;BME280;3924;48.830;9.262;2023-09-19T10:28:13;98564.59;;;21.17;63.84
7760;BME280;3924;48.830;9.262;2023-09-19T10:30:48;98554.22;;;21.69;62.62
7760;BME280;3924;48.830;9.262;2023-09-19T10:33:17;98560.41;;;22.08;61.59
7760;BME280;3924;48.830;9.262;2023-09-19T10:35:48;98559.38;;;22.39;60.85
7760;BME280;3924;48.830;9.262;2023-09-19T10:38:19;98555.25;;;22.52;60.20
7760;BME280;3924;48.830;9.262;2023-09-19T10:40:50;98554.69;;;22.43;60.33
7760;BME280;3924;48.830;9.262;2023-09-19T10:43:20;98567.38;;;22.44;60.13
7760;BME280;3924;48.830;9.262;2023-09-19T10:45:49;98563.69;;;22.63;59.63
7760;BME280;3924;48.830;9.262;2023-09-19T10:48:16;98558.16;;;22.63;59.26
7760;BME280;3924;48.830;9.262;2023-09-19T10:50:51;98558.25;;;22.70;58.95
7760;BME280;3924;48.830;9.262;2023-09-19T10:53:20;98563.47;;;22.75;58.42
7760;BME280;3924;48.830;9.262;2023-09-19T10:55:53;98564.38;;;22.83;58.18
7760;BME280;3924;48.830;9.262;2023-09-19T10:58:26;98555.13;;;22.98;57.55
7760;BME280;3924;48.830;9.262;2023-09-19T11:00:57;98565.13;;;23.06;57.33
7760;BME280;3924;48.830;9.262;2023-09-19T11:03:32;98560.13;;;23.19;56.64
7760;BME280;3924;48.830;9.262;2023-09-19T11:06:04;98548.94;;;23.42;56.09
7760;BME280;3924;48.830;9.262;2023-09-19T11:30:43;98534.47;;;23.93;53.25
7760;BME280;3924;48.830;9.262;2023-09-19T11:36:13;98533.50;;;24.19;52.06
7760;BME280;3924;48.830;9.262;2023-09-19T11:46:53;98514.31;;;24.44;50.91
7760;BME280;3924;48.830;9.262;2023-09-19T11:49:29;98521.50;;;24.52;50.38
7760;BME280;3924;48.830;9.262;2023-09-19T11:52:01;98519.91;;;24.51;50.33
7760;BME280;3924;48.830;9.262;2023-09-19T11:54:28;98521.59;;;24.15;50.78
7760;BME280;3924;48.830;9.262;2023-09-19T11:56:59;98527.50;;;24.10;50.82
7760;BME280;3924;48.830;9.262;2023-09-19T11:59:30;98522.03;;;24.20;50.26
7760;BME280;3924;48.830;9.262;2023-09-19T12:02:00;98523.78;;;24.43;49.84
7760;BME280;3924;48.830;9.262;2023-09-19T12:07:09;98504.81;;;24.45;49.39
7760;BME280;3924;48.830;9.262;2023-09-19T12:09:44;98496.91;;;24.47;49.21
7760;BME280;3924;48.830;9.262;2023-09-19T12:12:21;98518.22;;;24.36;49.11
7760;BME280;3924;48.830;9.262;2023-09-19T12:14:52;98497.69;;;24.44;48.88
7760;BME280;3924;48.830;9.262;2023-09-19T12:17:20;98494.63;;;24.60;48.52
7760;BME280;3924;48.830;9.262;2023-09-19T12:19:56;98500.16;;;24.60;48.30
7760;BME280;3924;48.830;9.262;2023-09-19T12:22:23;98508.03;;;24.54;48.20
7760;BME280;3924;48.830;9.262;2023-09-19T12:24:51;98498.13;;;24.53;48.20
7760;BME280;3924;48.830;9.262;2023-09-19T12:27:21;98503.31;;;24.58;48.02
7760;BME280;3924;48.830;9.262;2023-09-19T12:29:49;98498.56;;;24.62;47.73
7760;BME280;3924;48.830;9.262;2023-09-19T12:32:16;98482.81;;;24.73;47.48
7760;BME280;3924;48.830;9.262;2023-09-19T12:34:52;98476.53;;;24.87;46.97
7760;BME280;3924;48.830;9.262;2023-09-19T12:37:20;98479.81;;;25.10;46.68
7760;BME280;3924;48.830;9.262;2023-09-19T12:40:03;98474.28;;;25.14;46.54
7760;BME280;3924;48.830;9.262;2023-09-19T12:42:41;98485.22;;;24.82;47.07
7760;BME280;3924;48.830;9.262;2023-09-19T12:45:09;98470.53;;;24.74;47.28
7760;BME280;3924;48.830;9.262;2023-09-19T12:47:35;98481.25;;;24.83;46.99
7760;BME280;3924;48.830;9.262;2023-09-19T12:50:06;98457.91;;;24.88;46.54
7760;BME280;3924;48.830;9.262;2023-09-19T12:52:38;98474.97;;;24.97;46.61
7760;BME280;3924;48.830;9.262;2023-09-19T12:55:05;98468.03;;;24.55;47.24
7760;BME280;3924;48.830;9.262;2023-09-19T12:57:34;98481.59;;;24.12;47.81
7760;BME280;3924;48.830;9.262;2023-09-19T13:00:02;98474.38;;;23.56;48.83
7760;BME280;3924;48.830;9.262;2023-09-19T13:02:29;98475.69;;;23.32;49.35
7760;BME280;3924;48.830;9.262;2023-09-19T13:04:55;98475.09;;;23.12;49.69
7760;BME280;3924;48.830;9.262;2023-09-19T13:07:43;98470.91;;;22.92;50.05
7760;BME280;3924;48.830;9.262;2023-09-19T13:10:10;98472.84;;;23.22;49.26
7760;BME280;3924;48.830;9.262;2023-09-19T13:12:38;98461.91;;;23.36;48.91
7760;BME280;3924;48.830;9.262;2023-09-19T13:15:12;98468.22;;;23.70;48.23
7760;BME280;3924;48.830;9.262;2023-09-19T13:17:50;98465.97;;;23.86;47.84
7760;BME280;3924;48.830;9.262;2023-09-19T13:20:26;98471.47;;;23.42;48.47
7760;BME280;3924;48.830;9.262;2023-09-19T13:22:58;98468.66;;;23.01;49.18
7760;BME280;3924;48.830;9.262;2023-09-19T13:25:33;98456.81;;;23.04;49.13
7760;BME280;3924;48.830;9.262;2023-09-19T13:28:00;98467.41;;;23.32;48.68
7760;BME280;3924;48.830;9.262;2023-09-19T13:30:30;98460.03;;;23.88;47.65
7760;BME280;3924;48.830;9.262;2023-09-19T13:33:11;98455.44;;;24.02;47.11
7760;BME280;3924;48.830;9.262;2023-09-19T13:35:40;98466.19;;;23.67;47.78
7760;BME280;3924;48.830;9.262;2023-09-19T13:38:07;98465.31;;;23.59;47.53
7760;BME280;3924;48.830;9.262;2023-09-19T13:40:38;98450.47;;;23.74;47.56
7760;BME280;3924;48.830;9.262;2023-09-19T13:43:08;98461.53;;;23.74;47.62
7760;BME280;3924;48.830;9.262;2023-09-19T13:45:34;98452.63;;;23.58;47.85
7760;BME280;3924;48.830;9.262;2023-09-19T13:48:01;98443.69;;;23.31;48.01
7760;BME280;3924;48.830;9.262;2023-09-19T13:50:28;98445.44;;;23.09;48.53
7760;BME280;3924;48.830;9.262;2023-09-19T13:52:56;98445.69;;;22.97;48.85
7760;BME280;3924;48.830;9.262;2023-09-19T13:55:24;98443.31;;;22.96;48.95
7760;BME280;3924;48.830;9.262;2023-09-19T13:57:51;98442.13;;;22.97;48.95
7760;BME280;3924;48.830;9.262;2023-09-19T14:00:22;98443.34;;;23.36;48.14
7760;BME280;3924;48.830;9.262;2023-09-19T14:02:49;98435.59;;;23.53;47.79
7760;BME280;3924;48.830;9.262;2023-09-19T14:05:15;98435.09;;;23.43;47.92
7760;BME280;3924;48.830;9.262;2023-09-19T14:07:43;98441.19;;;23.19;48.34
7760;BME280;3924;48.830;9.262;2023-09-19T14:10:10;98447.28;;;22.98;48.60
7760;BME280;3924;48.830;9.262;2023-09-19T14:12:38;98438.66;;;23.03;48.48
7760;BME280;3924;48.830;9.262;2023-09-19T14:15:08;98440.53;;;22.96;48.78
7760;BME280;3924;48.830;9.262;2023-09-19T14:17:34;98435.31;;;22.87;48.86
7760;BME280;3924;48.830;9.262;2023-09-19T14:20:01;98441.53;;;22.84;48.87
7760;BME280;3924;48.830;9.262;2023-09-19T14:22:28;98439.94;;;22.79;49.12
7760;BME280;3924;48.830;9.262;2023-09-19T14:24:54;98435.56;;;23.08;48.37